createdAt,value
2023-02-06T00:02:14.518Z,56.40
2023-02-06T00:04:41.513Z,56.10
2023-02-06T00:07:08.342Z,56.10
2023-02-06T00:09:35.237Z,55.60
2023-02-06T00:12:02.112Z,55.00
2023-02-06T00:14:29.017Z,55.00
2023-02-06T00:16:55.853Z,55.10
2023-02-06T00:19:22.743Z,55.20
2023-02-06T00:21:49.621Z,55.30
2023-02-06T00:24:16.457Z,55.50
2023-02-06T00:26:43.357Z,55.70
2023-02-06T00:29:10.253Z,55.80
2023-02-06T00:31:37.126Z,55.90
2023-02-06T00:34:04.020Z,56.10
2023-02-06T00:36:30.843Z,56.20
2023-02-06T00:38:57.723Z,56.20
2023-02-06T00:41:24.572Z,56.20
2023-02-06T00:43:51.646Z,56.20
2023-02-06T00:46:18.631Z,56.40
2023-02-06T00:48:45.558Z,56.30
2023-02-06T00:51:12.473Z,56.30
2023-02-06T00:53:39.365Z,56.60
2023-02-06T00:56:06.312Z,56.90
2023-02-06T00:58:33.465Z,56.90
2023-02-06T01:01:00.366Z,57.00
2023-02-06T01:03:27.271Z,56.70
2023-02-06T01:05:54.169Z,55.90
2023-02-06T01:08:21.034Z,55.50
2023-02-06T01:10:47.909Z,55.40
2023-02-06T01:13:14.782Z,55.40
2023-02-06T01:15:41.811Z,55.40
2023-02-06T01:18:08.709Z,55.40
2023-02-06T01:20:35.674Z,55.40
2023-02-06T01:23:02.577Z,55.50
2023-02-06T01:25:29.437Z,55.60
2023-02-06T01:27:56.385Z,55.80
2023-02-06T01:30:23.501Z,55.80
2023-02-06T01:32:50.405Z,56.00
2023-02-06T01:35:17.306Z,56.40
2023-02-06T01:37:44.182Z,56.10
2023-02-06T01:40:15.407Z,55.90
2023-02-06T01:42:42.644Z,55.70
2023-02-06T01:45:21.411Z,55.70
2023-02-06T01:47:50.043Z,56.30
2023-02-06T01:50:16.859Z,56.30
2023-02-06T01:52:44.224Z,56.10
2023-02-06T01:55:11.126Z,55.90
2023-02-06T01:57:39.302Z,55.90
2023-02-06T02:00:08.374Z,55.90
2023-02-06T02:02:36.859Z,56.00
2023-02-06T02:05:08.339Z,56.10
2023-02-06T02:08:01.274Z,56.10
2023-02-06T02:10:31.692Z,56.10
2023-02-06T02:12:58.630Z,56.20
2023-02-06T02:15:35.601Z,56.30
2023-02-06T02:18:19.358Z,56.20
2023-02-06T02:20:46.264Z,56.50
2023-02-06T02:23:19.156Z,56.40
2023-02-06T02:26:04.906Z,55.90
2023-02-06T02:28:50.828Z,55.90
2023-02-06T02:31:31.889Z,55.90
2023-02-06T02:34:10.697Z,55.90
2023-02-06T02:37:00.841Z,56.10
2023-02-06T02:39:30.768Z,56.00
2023-02-06T02:42:00.128Z,56.30
2023-02-06T02:44:45.842Z,56.30
2023-02-06T02:47:14.411Z,56.30
2023-02-06T02:49:43.203Z,56.40
2023-02-06T02:52:10.262Z,56.10
2023-02-06T02:54:37.137Z,56.10
2023-02-06T02:57:09.509Z,55.90
2023-02-06T02:59:37.601Z,56.10
2023-02-06T03:02:13.252Z,56.00
2023-02-06T03:04:42.640Z,55.80
2023-02-06T03:07:28.351Z,55.90
2023-02-06T03:10:13.954Z,55.90
2023-02-06T03:12:49.624Z,56.10
2023-02-06T03:15:35.462Z,56.10
2023-02-06T03:18:07.926Z,56.40
2023-02-06T03:20:37.204Z,56.40
2023-02-06T03:23:04.821Z,55.90
2023-02-06T03:25:38.925Z,56.00
2023-02-06T03:28:07.424Z,56.40
2023-02-06T03:30:35.002Z,56.60
2023-02-06T03:33:04.639Z,56.70
2023-02-06T03:35:33.461Z,56.70
2023-02-06T03:38:00.731Z,56.60
2023-02-06T03:40:28.248Z,56.90
2023-02-06T03:42:56.922Z,56.70
2023-02-06T03:45:23.829Z,56.30
2023-02-06T03:47:52.367Z,56.00
2023-02-06T03:50:19.851Z,55.90
2023-02-06T03:52:48.861Z,55.80
2023-02-06T03:55:21.320Z,56.00
2023-02-06T03:58:08.424Z,56.30
2023-02-06T04:00:36.999Z,56.40
2023-02-06T04:03:04.394Z,56.40
2023-02-06T04:05:31.419Z,56.50
2023-02-06T04:07:58.460Z,56.60
2023-02-06T04:10:26.402Z,56.80
2023-02-06T04:12:53.580Z,57.00
2023-02-06T04:15:20.556Z,56.90
2023-02-06T04:17:59.264Z,56.90
2023-02-06T04:20:27.715Z,56.90
2023-02-06T04:22:54.602Z,56.80
2023-02-06T04:25:21.514Z,56.80
2023-02-06T04:27:48.557Z,56.70
2023-02-06T04:30:15.939Z,56.70
2023-02-06T04:32:42.856Z,56.60
2023-02-06T04:35:10.142Z,56.60
2023-02-06T04:37:37.864Z,56.50
2023-02-06T04:40:05.043Z,56.40
2023-02-06T04:42:31.860Z,56.40
2023-02-06T04:44:58.841Z,56.40
2023-02-06T04:47:25.715Z,56.30
2023-02-06T04:49:53.209Z,56.60
2023-02-06T04:52:20.085Z,56.50
2023-02-06T04:54:47.023Z,56.40
2023-02-06T04:57:13.849Z,56.30
2023-02-06T04:59:40.742Z,56.40
2023-02-06T05:02:07.598Z,56.50
2023-02-06T05:04:34.473Z,56.40
2023-02-06T05:07:01.318Z,56.30
2023-02-06T05:09:28.277Z,56.40
2023-02-06T05:11:55.182Z,56.60
2023-02-06T05:14:22.105Z,56.60
2023-02-06T05:16:49.052Z,56.40
2023-02-06T05:19:15.959Z,56.10
2023-02-06T05:21:42.938Z,56.00
2023-02-06T05:24:09.866Z,56.10
2023-02-06T05:26:36.739Z,56.00
2023-02-06T05:29:03.593Z,56.00
2023-02-06T05:31:30.750Z,55.80
2023-02-06T05:33:57.711Z,55.80
2023-02-06T05:36:24.716Z,55.90
2023-02-06T05:38:51.997Z,56.40
2023-02-06T05:41:18.899Z,56.60
2023-02-06T05:43:45.909Z,56.50
2023-02-06T05:46:13.220Z,56.00
2023-02-06T05:48:40.854Z,55.70
2023-02-06T05:51:07.916Z,55.40
2023-02-06T05:53:34.852Z,55.50
2023-02-06T05:56:01.772Z,55.70
2023-02-06T05:58:28.669Z,55.70
2023-02-06T06:00:55.526Z,55.70
2023-02-06T06:03:22.513Z,55.80
2023-02-06T06:05:49.987Z,55.80
2023-02-06T06:08:16.916Z,55.90
2023-02-06T06:10:43.851Z,56.00
2023-02-06T06:13:10.728Z,56.20
2023-02-06T06:15:37.919Z,56.60
2023-02-06T06:18:05.063Z,56.90
2023-02-06T06:20:31.916Z,56.60
2023-02-06T06:22:58.797Z,56.40
2023-02-06T06:25:25.686Z,56.40
2023-02-06T06:27:52.693Z,56.50
2023-02-06T06:30:19.727Z,56.60
2023-02-06T06:32:46.647Z,57.10
2023-02-06T06:35:13.565Z,57.50
2023-02-06T06:37:40.408Z,57.60
2023-02-06T06:40:07.425Z,57.20
2023-02-06T06:42:34.470Z,57.00
2023-02-06T06:45:01.381Z,57.10
2023-02-06T06:47:28.478Z,57.00
2023-02-06T06:49:56.686Z,57.10
2023-02-06T06:52:25.598Z,57.40
2023-02-06T06:54:53.189Z,57.40
2023-02-06T06:57:20.759Z,57.10
2023-02-06T06:59:47.649Z,56.90
2023-02-06T07:02:14.665Z,56.80
2023-02-06T07:04:42.017Z,57.10
2023-02-06T07:07:09.203Z,57.30
2023-02-06T07:09:36.095Z,57.00
2023-02-06T07:12:03.068Z,56.70
2023-02-06T07:14:29.980Z,56.70
2023-02-06T07:16:57.108Z,56.70
2023-02-06T07:19:24.032Z,56.80
2023-02-06T07:21:50.843Z,56.80
2023-02-06T07:24:17.780Z,56.70
2023-02-06T07:26:45.347Z,56.90
2023-02-06T07:29:12.298Z,57.00
2023-02-06T07:31:39.165Z,57.00
2023-02-06T07:34:06.104Z,56.90
2023-02-06T07:36:33.216Z,56.80
2023-02-06T07:39:01.721Z,56.50
2023-02-06T07:41:28.656Z,56.40
2023-02-06T07:43:57.804Z,56.30
2023-02-06T07:46:24.903Z,56.50
2023-02-06T07:48:51.744Z,56.60
2023-02-06T07:51:18.692Z,56.60
2023-02-06T07:53:45.548Z,56.60
2023-02-06T07:56:13.959Z,56.70
2023-02-06T07:58:40.881Z,56.60
2023-02-06T08:01:08.215Z,56.40
2023-02-06T08:03:35.422Z,56.40
2023-02-06T08:06:07.186Z,56.40
2023-02-06T08:08:34.052Z,56.50
2023-02-06T08:11:04.406Z,56.60
2023-02-06T08:13:31.260Z,56.60
2023-02-06T08:15:58.074Z,56.60
2023-02-06T08:18:24.949Z,56.60
2023-02-06T08:20:51.887Z,56.50
2023-02-06T08:23:20.897Z,56.70
2023-02-06T08:25:47.805Z,56.80
2023-02-06T08:28:15.110Z,56.70
2023-02-06T08:30:42.163Z,56.70
2023-02-06T08:33:09.297Z,56.70
2023-02-06T08:35:36.545Z,56.50
2023-02-06T08:38:05.624Z,56.50
2023-02-06T08:40:32.663Z,56.60
2023-02-06T08:42:59.571Z,56.70
2023-02-06T08:45:26.466Z,56.70
2023-02-06T08:47:53.440Z,56.60
2023-02-06T08:50:22.154Z,56.70
2023-02-06T08:52:49.040Z,56.90
2023-02-06T08:55:15.890Z,56.80
2023-02-06T08:57:42.747Z,56.50
2023-02-06T09:00:10.123Z,55.30
2023-02-06T09:02:37.260Z,55.10
2023-02-06T09:05:04.247Z,54.70
2023-02-06T09:07:31.137Z,54.50
2023-02-06T09:09:57.941Z,54.20
2023-02-06T09:12:24.841Z,53.90
2023-02-06T09:14:51.798Z,53.70
2023-02-06T09:17:18.752Z,54.20
2023-02-06T09:19:45.725Z,55.00
2023-02-06T09:22:12.619Z,55.40
2023-02-06T09:24:39.638Z,55.00
2023-02-06T09:27:06.552Z,54.30
2023-02-06T09:29:33.489Z,53.50
2023-02-06T09:32:00.489Z,52.80
2023-02-06T09:34:28.045Z,53.00
2023-02-06T09:36:56.872Z,53.50
2023-02-06T09:39:24.216Z,54.10
2023-02-06T09:41:53.376Z,55.10
2023-02-06T09:44:23.100Z,57.00
2023-02-06T09:46:59.031Z,56.30
2023-02-06T09:49:30.736Z,54.20
2023-02-06T09:51:57.577Z,52.30
2023-02-06T09:54:33.497Z,50.40
2023-02-06T09:57:00.496Z,49.00
2023-02-06T09:59:31.161Z,48.30
2023-02-06T10:02:04.165Z,48.00
2023-02-06T10:04:38.128Z,47.50
2023-02-06T10:07:08.020Z,47.80
2023-02-06T10:09:55.138Z,47.00
2023-02-06T10:12:28.599Z,46.40
2023-02-06T10:15:04.685Z,46.40
2023-02-06T10:17:34.582Z,46.60
2023-02-06T10:20:04.871Z,46.40
2023-02-06T10:22:36.534Z,46.20
2023-02-06T10:25:13.622Z,46.00
2023-02-06T10:27:42.434Z,45.90
2023-02-06T10:30:16.623Z,46.00
2023-02-06T10:32:49.432Z,46.60
2023-02-06T10:35:35.870Z,47.00
2023-02-06T10:38:06.109Z,47.30
2023-02-06T10:40:32.999Z,47.80
2023-02-06T10:43:08.033Z,48.30
2023-02-06T10:45:38.046Z,48.80
2023-02-06T10:48:08.364Z,49.10
2023-02-06T10:50:38.139Z,49.00
2023-02-06T10:53:31.571Z,49.10
2023-02-06T10:56:01.061Z,49.30
2023-02-06T10:58:30.600Z,49.90
2023-02-06T11:00:58.545Z,50.20
2023-02-06T11:03:27.250Z,50.60
2023-02-06T11:05:54.780Z,51.10
2023-02-06T11:08:27.738Z,51.30
2023-02-06T11:10:55.070Z,51.50
2023-02-06T11:13:30.059Z,51.30
2023-02-06T11:16:05.274Z,51.30
2023-02-06T11:18:51.029Z,51.70
2023-02-06T11:21:37.900Z,51.40
2023-02-06T11:24:09.831Z,51.20
2023-02-06T11:26:41.310Z,51.40
2023-02-06T11:29:16.809Z,51.20
2023-02-06T11:31:52.842Z,51.20
2023-02-06T11:34:33.761Z,51.00
2023-02-06T11:37:02.306Z,51.10
2023-02-06T11:39:32.431Z,51.30
2023-02-06T11:42:15.638Z,51.30
2023-02-06T11:44:43.647Z,51.20
2023-02-06T11:47:31.437Z,51.20
2023-02-06T11:50:13.753Z,51.30
2023-02-06T11:52:42.112Z,51.40
2023-02-06T11:55:27.127Z,51.40
2023-02-06T11:58:02.941Z,51.40
2023-02-06T12:00:31.050Z,51.90
2023-02-06T12:02:57.995Z,51.80
2023-02-06T12:05:28.146Z,51.80
2023-02-06T12:08:00.318Z,51.90
2023-02-06T12:10:27.949Z,52.00
2023-02-06T12:13:00.959Z,52.20
2023-02-06T12:15:46.086Z,52.20
2023-02-06T12:18:26.318Z,52.40
2023-02-06T12:20:54.705Z,52.20
2023-02-06T12:23:28.081Z,52.20
2023-02-06T12:25:57.653Z,52.20
2023-02-06T12:28:30.826Z,51.90
2023-02-06T12:30:59.180Z,51.70
2023-02-06T12:33:36.375Z,51.50
2023-02-06T12:36:07.947Z,51.30
2023-02-06T12:38:41.481Z,51.40
2023-02-06T12:41:08.355Z,51.30
2023-02-06T12:43:36.235Z,51.30
2023-02-06T12:46:03.155Z,51.30
2023-02-06T12:48:30.077Z,51.30
2023-02-06T12:50:56.869Z,51.30
2023-02-06T12:53:29.768Z,51.40
2023-02-06T12:55:56.606Z,51.30
2023-02-06T12:58:28.714Z,51.20
2023-02-06T13:00:55.576Z,51.40
2023-02-06T13:03:30.693Z,51.50
2023-02-06T13:06:01.444Z,51.50
2023-02-06T13:08:40.710Z,51.60
2023-02-06T13:11:09.501Z,51.40
2023-02-06T13:13:38.246Z,51.70
2023-02-06T13:16:06.053Z,51.80
2023-02-06T13:18:36.429Z,52.10
2023-02-06T13:21:18.615Z,52.10
2023-02-06T13:23:49.447Z,52.20
2023-02-06T13:26:16.826Z,52.00
2023-02-06T13:28:46.019Z,51.70
2023-02-06T13:31:23.957Z,51.90
2023-02-06T13:33:53.524Z,52.10
2023-02-06T13:36:27.854Z,52.10
2023-02-06T13:38:56.132Z,52.10
2023-02-06T13:41:34.994Z,52.20
2023-02-06T13:44:06.902Z,52.30
2023-02-06T13:46:39.975Z,51.90
2023-02-06T13:49:09.785Z,51.90
2023-02-06T13:51:36.633Z,51.90
2023-02-06T13:54:03.839Z,51.80
2023-02-06T13:56:49.579Z,51.80
2023-02-06T13:59:19.323Z,51.40
2023-02-06T14:01:46.610Z,51.30
2023-02-06T14:04:23.355Z,51.10
2023-02-06T14:06:51.829Z,50.80
2023-02-06T14:09:56.275Z,50.70
2023-02-06T14:12:33.824Z,50.80
2023-02-06T14:15:06.901Z,50.50
2023-02-06T14:17:38.952Z,50.30
2023-02-06T14:20:15.059Z,50.20
2023-02-06T14:23:05.983Z,50.00
2023-02-06T14:25:52.759Z,49.80
2023-02-06T14:28:28.654Z,49.90
2023-02-06T14:31:10.693Z,49.70
2023-02-06T14:33:44.418Z,49.70
2023-02-06T14:36:14.043Z,49.60
2023-02-06T14:38:40.977Z,49.70
2023-02-06T14:41:08.013Z,49.60
2023-02-06T14:43:37.421Z,49.60
2023-02-06T14:46:08.315Z,49.80
2023-02-06T14:48:44.779Z,49.80
2023-02-06T14:51:20.833Z,49.90
2023-02-06T14:53:52.681Z,50.00
2023-02-06T14:56:25.574Z,50.10
2023-02-06T14:58:52.509Z,50.00
2023-02-06T15:01:21.357Z,50.00
2023-02-06T15:03:49.570Z,50.00
2023-02-06T15:06:28.512Z,50.00
2023-02-06T15:08:55.558Z,50.00
2023-02-06T15:11:24.682Z,50.10
2023-02-06T15:13:52.845Z,50.10
2023-02-06T15:16:19.764Z,50.30
2023-02-06T15:18:46.676Z,50.40
2023-02-06T15:21:17.849Z,50.50
2023-02-06T15:23:47.724Z,50.70
2023-02-06T15:26:33.273Z,50.90
2023-02-06T15:29:00.877Z,51.10
2023-02-06T15:31:28.560Z,51.30
2023-02-06T15:33:57.481Z,51.40
2023-02-06T15:36:34.916Z,51.50
2023-02-06T15:39:03.150Z,51.70
2023-02-06T15:41:31.373Z,51.90
2023-02-06T15:44:00.871Z,52.10
2023-02-06T15:46:28.117Z,52.20
2023-02-06T15:48:57.494Z,52.50
2023-02-06T15:51:28.529Z,52.60
2023-02-06T15:54:13.981Z,52.70
2023-02-06T15:56:41.617Z,52.70
2023-02-06T15:59:17.941Z,52.80
2023-02-06T16:01:44.856Z,52.90
2023-02-06T16:04:13.757Z,53.10
2023-02-06T16:06:41.646Z,53.30
2023-02-06T16:09:15.962Z,53.40
2023-02-06T16:11:50.729Z,53.40
2023-02-06T16:14:23.257Z,53.70
2023-02-06T16:17:23.053Z,53.90
2023-02-06T16:19:53.385Z,53.90
2023-02-06T16:22:28.020Z,54.30
2023-02-06T16:24:56.383Z,54.30
2023-02-06T16:27:26.598Z,54.40
2023-02-06T16:29:55.137Z,54.50
2023-02-06T16:32:28.591Z,54.70
2023-02-06T16:34:55.804Z,54.80
2023-02-06T16:37:27.085Z,54.90
2023-02-06T16:39:54.720Z,55.00
2023-02-06T16:42:23.320Z,55.30
2023-02-06T16:44:51.628Z,55.50
2023-02-06T16:47:19.920Z,55.50
2023-02-06T16:49:48.453Z,55.50
2023-02-06T16:52:21.085Z,55.60
2023-02-06T16:54:48.391Z,55.80
2023-02-06T16:57:35.356Z,55.90
2023-02-06T17:00:04.016Z,56.10
2023-02-06T17:02:30.823Z,56.20
2023-02-06T17:04:57.753Z,56.40
2023-02-06T17:07:25.771Z,56.50
2023-02-06T17:09:54.304Z,56.20
2023-02-06T17:12:22.242Z,56.20
2023-02-06T17:14:49.375Z,56.30
2023-02-06T17:17:17.942Z,56.70
2023-02-06T17:19:44.863Z,56.70
2023-02-06T17:22:12.597Z,56.60
2023-02-06T17:24:40.077Z,56.80
2023-02-06T17:27:08.013Z,57.20
2023-02-06T17:29:35.452Z,56.80
2023-02-06T17:32:03.080Z,56.50
2023-02-06T17:34:30.648Z,56.60
2023-02-06T17:36:57.524Z,56.70
2023-02-06T17:39:24.494Z,56.80
2023-02-06T17:41:51.558Z,57.10
2023-02-06T17:44:19.100Z,56.90
2023-02-06T17:46:47.165Z,57.00
2023-02-06T17:49:14.626Z,57.00
2023-02-06T17:51:42.296Z,56.90
2023-02-06T17:54:09.781Z,57.00
2023-02-06T17:56:37.112Z,57.20
2023-02-06T17:59:04.230Z,57.30
2023-02-06T18:01:31.088Z,58.00
2023-02-06T18:04:00.903Z,57.80
2023-02-06T18:06:31.681Z,57.40
2023-02-06T18:08:58.614Z,57.70
2023-02-06T18:11:25.691Z,57.50
2023-02-06T18:13:52.585Z,57.60
2023-02-06T18:16:20.851Z,57.80
2023-02-06T18:18:48.210Z,57.70
2023-02-06T18:21:16.283Z,57.60
2023-02-06T18:23:43.144Z,57.80
2023-02-06T18:26:10.063Z,57.80
2023-02-06T18:28:37.781Z,57.70
2023-02-06T18:31:05.290Z,58.20
2023-02-06T18:33:33.954Z,58.00
2023-02-06T18:36:05.088Z,58.20
2023-02-06T18:38:32.298Z,58.20
2023-02-06T18:41:05.797Z,58.00
2023-02-06T18:43:33.284Z,57.90
2023-02-06T18:46:06.689Z,58.10
2023-02-06T18:48:34.175Z,58.30
2023-02-06T18:51:01.208Z,58.20
2023-02-06T18:53:28.142Z,58.20
2023-02-06T18:55:58.903Z,58.30
2023-02-06T18:58:25.792Z,58.30
2023-02-06T19:00:52.824Z,58.50
2023-02-06T19:03:19.872Z,58.60
2023-02-06T19:05:46.692Z,58.70
2023-02-06T19:08:13.631Z,59.00
2023-02-06T19:10:40.954Z,59.10
2023-02-06T19:13:08.066Z,58.70
2023-02-06T19:15:38.336Z,58.80
2023-02-06T19:18:05.845Z,59.00
2023-02-06T19:20:32.892Z,58.80
2023-02-06T19:22:59.832Z,58.60
2023-02-06T19:25:26.784Z,58.60
2023-02-06T19:27:55.567Z,58.80
2023-02-06T19:30:22.616Z,58.80
2023-02-06T19:32:51.616Z,59.00
2023-02-06T19:35:19.029Z,58.90
2023-02-06T19:37:45.972Z,59.00
2023-02-06T19:40:12.828Z,59.10
2023-02-06T19:42:40.624Z,59.30
2023-02-06T19:45:07.679Z,59.30
2023-02-06T19:47:35.138Z,59.30
2023-02-06T19:50:03.309Z,59.20
2023-02-06T19:52:30.336Z,59.30
2023-02-06T19:54:57.169Z,59.30
2023-02-06T19:57:24.036Z,59.40
2023-02-06T19:59:50.850Z,59.60
2023-02-06T20:02:18.006Z,59.60
2023-02-06T20:04:46.327Z,59.70
2023-02-06T20:07:13.328Z,59.80
2023-02-06T20:09:42.089Z,59.80
2023-02-06T20:12:10.136Z,59.80
2023-02-06T20:14:37.098Z,59.80
2023-02-06T20:17:05.918Z,59.90
2023-02-06T20:19:32.844Z,59.90
2023-02-06T20:22:00.204Z,59.80
2023-02-06T20:24:28.897Z,59.80
2023-02-06T20:26:57.891Z,59.90
2023-02-06T20:29:26.864Z,60.00
2023-02-06T20:31:54.113Z,59.90
2023-02-06T20:34:21.905Z,59.70
2023-02-06T20:36:49.404Z,59.80
2023-02-06T20:39:17.278Z,60.30
2023-02-06T20:41:45.606Z,60.70
2023-02-06T20:44:13.649Z,60.80
2023-02-06T20:46:41.189Z,60.30
2023-02-06T20:49:12.558Z,60.00
2023-02-06T20:51:39.481Z,59.90
2023-02-06T20:54:06.724Z,59.70
2023-02-06T20:56:34.062Z,60.00
2023-02-06T20:59:01.459Z,59.80
2023-02-06T21:01:29.527Z,59.90
2023-02-06T21:03:57.985Z,59.80
2023-02-06T21:06:25.818Z,59.70
2023-02-06T21:08:57.388Z,60.00
2023-02-06T21:11:24.338Z,60.00
2023-02-06T21:13:51.306Z,59.90
2023-02-06T21:16:18.207Z,60.00
2023-02-06T21:18:46.029Z,59.80
2023-02-06T21:21:14.392Z,59.60
2023-02-06T21:23:42.423Z,59.80
2023-02-06T21:26:10.717Z,59.80
2023-02-06T21:28:38.070Z,59.80
2023-02-06T21:31:09.909Z,59.80
2023-02-06T21:33:37.245Z,59.80
2023-02-06T21:36:06.828Z,60.00
2023-02-06T21:38:34.344Z,60.00
2023-02-06T21:41:08.761Z,60.00
2023-02-06T21:43:35.674Z,60.00
2023-02-06T21:46:02.598Z,60.00
2023-02-06T21:48:29.928Z,60.00
2023-02-06T21:50:59.770Z,60.10
2023-02-06T21:53:26.610Z,59.90
2023-02-06T21:55:53.601Z,60.00
2023-02-06T21:58:20.536Z,59.90
2023-02-06T22:00:47.712Z,59.90
2023-02-06T22:03:14.799Z,59.80
2023-02-06T22:05:44.495Z,59.90
2023-02-06T22:08:11.495Z,59.80
2023-02-06T22:10:38.397Z,59.90
2023-02-06T22:13:05.971Z,60.10
2023-02-06T22:15:33.828Z,60.30
2023-02-06T22:18:00.826Z,60.40
2023-02-06T22:20:27.760Z,60.40
2023-02-06T22:22:54.982Z,60.50
2023-02-06T22:25:21.903Z,60.50
2023-02-06T22:27:48.823Z,60.70
2023-02-06T22:30:15.866Z,60.70
2023-02-06T22:32:42.768Z,60.60
2023-02-06T22:35:09.636Z,60.60
2023-02-06T22:37:36.535Z,60.50
2023-02-06T22:40:03.556Z,60.40
2023-02-06T22:42:30.524Z,60.40
2023-02-06T22:44:57.574Z,60.40
2023-02-06T22:47:24.473Z,60.30
2023-02-06T22:49:52.710Z,60.30
2023-02-06T22:52:38.680Z,60.30
2023-02-06T22:55:06.182Z,60.30
2023-02-06T22:57:35.359Z,60.40
2023-02-06T23:00:02.349Z,60.40
2023-02-06T23:02:29.247Z,60.40
2023-02-06T23:04:56.342Z,60.20
2023-02-06T23:07:23.197Z,60.10
2023-02-06T23:09:50.130Z,60.10
2023-02-06T23:12:17.069Z,60.20
2023-02-06T23:14:44.036Z,60.00
2023-02-06T23:17:10.999Z,60.10
2023-02-06T23:19:38.844Z,59.80
2023-02-06T23:22:05.964Z,59.50
2023-02-06T23:24:32.864Z,59.30
2023-02-06T23:27:00.354Z,59.40
2023-02-06T23:29:27.357Z,59.30
2023-02-06T23:31:54.401Z,59.40
2023-02-06T23:34:23.920Z,59.50
2023-02-06T23:36:52.042Z,59.70
2023-02-06T23:39:19.143Z,59.50
2023-02-06T23:41:46.102Z,59.20
2023-02-06T23:44:13.180Z,59.10
2023-02-06T23:46:40.454Z,58.90
2023-02-06T23:49:07.877Z,58.80
2023-02-06T23:51:37.379Z,58.90
2023-02-06T23:54:05.549Z,59.00
2023-02-06T23:56:32.538Z,59.00
2023-02-06T23:59:00.796Z,58.90
